Time;durP1;ratioP1;P1;durP2;ratioP2;P2;SDS_P1;SDS_P2;PMS_P1;PMS_P2;Temp;Humidity;BMP_temperature;BMP_pressure;BME280_temperature;BME280_humidity;BME280_pressure;Samples;Min_cycle;Max_cycle;Signal;HPM_P1;HPM_P2
2023/03/11 00:01:57;;;;;;;3.75;0.40;;;;;;;-146.27;82.26;48375.69;5079051;28;20039;-68
2023/03/11 00:04:22;;;;;;;6.97;0.80;;;;;;;-146.27;81.44;48383.66;5088970;28;20502;-69
2023/03/11 00:06:47;;;;;;;4.50;0.70;;;;;;;-146.27;78.35;48427.47;5088558;28;20059;-70
2023/03/11 00:09:13;;;;;;;7.85;0.73;;;;;;;-146.27;78.54;48419.50;5084707;28;20566;-69
2023/03/11 00:11:38;;;;;;;4.68;0.80;;;;;;;-146.27;76.14;48375.69;5088414;28;20024;-68
2023/03/11 00:14:04;;;;;;;0.70;0.30;;;;;;;-146.27;73.32;48411.53;5091281;28;20028;-70
2023/03/11 00:16:29;;;;;;;1.52;0.57;;;;;;;-146.27;73.98;48407.56;5085906;28;20938;-69
2023/03/11 00:18:55;;;;;;;3.45;0.75;;;;;;;-146.27;71.94;48399.59;5090894;28;20043;-69
2023/03/11 00:21:20;;;;;;;1.08;0.40;;;;;;;-146.27;71.19;48443.41;5090213;28;20027;-69
2023/03/11 00:23:45;;;;;;;2.42;0.40;;;;;;;-146.27;70.04;48415.53;5089641;28;20028;-69
2023/03/11 00:26:11;;;;;;;1.50;0.35;;;;;;;-146.27;69.88;48365.72;5085731;28;20035;-70
2023/03/11 00:28:37;;;;;;;8.57;0.68;;;;;;;-146.27;68.57;48407.56;5076588;28;20429;-69
2023/03/11 00:31:02;;;;;;;2.95;0.68;;;;;;;-146.27;69.56;48375.69;5090810;28;20024;-69
2023/03/11 00:33:28;;;;;;;6.43;0.55;;;;;;;-146.27;69.90;48407.56;5084029;28;20048;-68
2023/03/11 00:35:54;;;;;;;1.52;0.65;;;;;;;-146.27;72.85;48387.63;5092608;28;20050;-69
2023/03/11 00:38:19;;;;;;;1.42;0.40;;;;;;;-146.27;74.55;48391.63;5090203;28;20073;-69
2023/03/11 00:40:46;;;;;;;2.30;0.30;;;;;;;-146.27;74.17;48387.63;5074083;28;20028;-69
2023/03/11 00:43:12;;;;;;;1.67;0.52;;;;;;;-146.27;74.82;48399.59;5087107;28;20024;-69
2023/03/11 00:45:38;;;;;;;2.78;0.68;;;;;;;-146.27;75.54;48379.66;5091163;28;20547;-69
2023/03/11 00:48:04;;;;;;;3.88;0.60;;;;;;;-146.27;76.85;48371.69;5090838;28;20102;-68
2023/03/11 00:50:32;;;;;;;5.10;0.55;;;;;;;-146.27;78.26;48403.56;5092849;28;20422;-69
2023/03/11 00:52:58;;;;;;;1.45;0.43;;;;;;;-146.27;79.35;48409.53;5091541;28;20027;-69
2023/03/11 00:55:26;;;;;;;0.63;0.63;;;;;;;-146.27;79.70;48373.69;5077723;28;20036;-68
2023/03/11 00:57:57;;;;;;;1.92;0.32;;;;;;;-146.27;79.90;48395.59;5085185;28;20032;-68
2023/03/11 01:00:24;;;;;;;0.70;0.60;;;;;;;-146.27;81.00;48391.63;5082572;28;20032;-68
2023/03/11 01:02:51;;;;;;;4.55;0.70;;;;;;;-146.27;81.57;48399.59;5089703;28;20039;-69
2023/03/11 01:05:29;;;;;;;4.43;0.28;;;;;;;-146.27;82.00;48379.66;5088053;28;20024;-70
2023/03/11 01:07:54;;;;;;;6.50;1.25;;;;;;;-146.27;82.74;48403.56;5084420;28;20048;-70
2023/03/11 01:10:20;;;;;;;3.85;0.65;;;;;;;-146.27;83.02;48421.50;5076096;28;20020;-69
2023/03/11 01:12:45;;;;;;;3.65;0.90;;;;;;;-146.27;83.82;48375.69;5086479;28;20065;-69
2023/03/11 01:15:18;;;;;;;0.98;0.70;;;;;;;-146.27;84.04;48421.50;5083887;28;20028;-70
2023/03/11 01:17:43;;;;;;;1.30;0.60;;;;;;;-146.27;84.46;48391.63;5089729;28;20031;-69
2023/03/11 01:20:10;;;;;;;2.70;0.50;;;;;;;-146.27;84.99;48383.66;5083086;28;20085;-68
2023/03/11 01:22:36;;;;;;;3.53;0.60;;;;;;;-146.27;85.06;48427.47;5079025;28;20839;-69
2023/03/11 01:25:01;;;;;;;5.00;0.65;;;;;;;-146.27;84.70;48371.69;5092012;28;20024;-69
2023/03/11 01:27:27;;;;;;;2.35;0.63;;;;;;;-146.27;84.42;48423.50;5091885;28;20027;-70
2023/03/11 01:29:52;;;;;;;5.10;0.50;;;;;;;-146.27;84.97;48393.63;5080873;28;20062;-71
2023/03/11 01:32:18;;;;;;;4.97;0.52;;;;;;;-146.27;81.74;48395.59;5087529;28;20020;-69
2023/03/11 01:34:43;;;;;;;3.60;0.75;;;;;;;-146.27;75.54;48399.59;5086696;28;20024;-68
2023/03/11 01:37:08;;;;;;;3.38;0.82;;;;;;;-146.27;72.75;48369.72;5090889;28;20103;-68
2023/03/11 01:39:34;;;;;;;2.83;0.47;;;;;;;-146.27;79.68;48413.53;5090621;28;20031;-69
2023/03/11 01:42:00;;;;;;;7.43;0.50;;;;;;;-146.27;83.06;48391.63;5088968;28;20094;-69
2023/03/11 01:44:25;;;;;;;2.08;0.50;;;;;;;-146.27;83.80;48369.72;5087938;28;20444;-71
2023/03/11 01:46:50;;;;;;;2.10;0.35;;;;;;;-146.27;84.51;48413.53;5089511;28;20024;-70
2023/03/11 01:49:16;;;;;;;2.67;0.32;;;;;;;-146.27;83.40;48421.50;5092080;28;20112;-69
2023/03/11 01:51:45;;;;;;;1.35;0.45;;;;;;;-146.27;83.78;48433.44;5084628;28;20024;-69
2023/03/11 01:54:15;;;;;;;1.30;0.22;;;;;;;-146.27;84.29;48399.59;5089038;28;20446;-69
2023/03/11 01:56:41;;;;;;;4.35;0.70;;;;;;;-146.27;85.21;48387.63;5081534;28;20116;-69
2023/03/11 01:59:10;;;;;;;5.38;0.68;;;;;;;-146.27;84.60;48419.50;5075080;28;20391;-69
2023/03/11 02:01:44;;;;;;;2.22;0.68;;;;;;;-146.27;84.76;48379.66;5091134;28;20057;-69
2023/03/11 02:04:10;;;;;;;2.15;0.95;;;;;;;-146.27;84.43;48411.53;5091202;28;20024;-69
2023/03/11 02:06:35;;;;;;;1.88;0.32;;;;;;;-146.27;85.01;48413.53;5086744;28;20533;-69
2023/03/11 02:09:01;;;;;;;1.80;0.57;;;;;;;-146.27;85.30;48355.78;5085361;28;20040;-69
2023/03/11 02:11:29;;;;;;;6.70;0.60;;;;;;;-146.27;85.66;48399.59;5082783;28;20024;-69
2023/03/11 02:13:59;;;;;;;3.05;0.30;;;;;;;-146.27;86.22;48401.56;5085403;28;20031;-69
2023/03/11 02:16:25;;;;;;;0.98;0.30;;;;;;;-146.27;86.33;48415.53;5087607;28;20028;-69
2023/03/11 02:18:50;;;;;;;7.88;1.20;;;;;;;-146.27;86.86;48387.63;5087472;28;20032;-69
2023/03/11 02:21:28;;;;;;;2.20;0.60;;;;;;;-146.27;87.51;48377.69;5090173;28;20051;-69
2023/03/11 02:24:17;;;;;;;5.68;0.68;;;;;;;-146.27;88.43;48371.69;5088249;28;20055;-69
2023/03/11 02:27:01;;;;;;;8.40;0.50;;;;;;;-146.27;88.92;48403.56;5084500;28;20028;-67
2023/03/11 02:29:28;;;;;;;0.88;0.50;;;;;;;-146.27;89.89;48403.56;5077679;28;20479;-68
2023/03/11 02:31:55;;;;;;;4.38;0.45;;;;;;;-146.27;90.16;48373.69;5079350;28;20016;-69
2023/03/11 02:34:30;;;;;;;9.90;0.80;;;;;;;-146.27;90.56;48379.66;5089023;28;20111;-68
2023/03/11 02:36:57;;;;;;;2.67;0.80;;;;;;;-146.27;90.76;48393.63;5090387;28;20025;-69
2023/03/11 02:39:35;;;;;;;2.38;0.50;;;;;;;-146.27;91.15;48399.59;5094626;28;20487;-69
2023/03/11 02:42:13;;;;;;;0.98;0.57;;;;;;;-146.27;91.90;48445.41;5082668;28;20048;-69
2023/03/11 02:44:41;;;;;;;1.90;0.47;;;;;;;-146.27;92.83;48403.56;5091519;28;20383;-70
2023/03/11 02:47:06;;;;;;;3.58;0.88;;;;;;;-146.27;93.51;48425.47;5075794;28;20436;-69
2023/03/11 02:49:32;;;;;;;4.45;0.70;;;;;;;-146.27;94.24;48403.56;5095544;28;20059;-70
2023/03/11 02:51:57;;;;;;;2.78;0.55;;;;;;;-146.27;95.78;48391.63;5094423;28;20028;-68
2023/03/11 02:54:23;;;;;;;5.30;0.80;;;;;;;-146.27;97.86;48403.56;5096019;28;20024;-68
2023/03/11 02:56:48;;;;;;;6.30;0.65;;;;;;;-146.27;99.01;48379.66;5085941;28;20039;-69
2023/03/11 02:59:13;;;;;;;4.30;0.40;;;;;;;-146.27;99.40;48391.63;5092500;28;20476;-69
2023/03/11 03:01:39;;;;;;;8.45;1.55;;;;;;;-146.27;100.00;48377.69;5086122;28;20029;-71
2023/03/11 03:04:04;;;;;;;1.83;0.60;;;;;;;-146.27;100.00;48383.66;5084431;28;20165;-70
2023/03/11 03:06:29;;;;;;;3.05;0.70;;;;;;;-146.27;100.00;48411.53;5089148;28;20121;-70
2023/03/11 03:08:55;;;;;;;1.38;0.40;;;;;;;-146.27;100.00;48429.47;5085557;28;20039;-70
2023/03/11 03:11:21;;;;;;;1.02;0.77;;;;;;;-146.27;100.00;48423.50;5092378;28;20065;-69
2023/03/11 03:13:46;;;;;;;7.25;0.70;;;;;;;-146.27;100.00;48397.59;5086291;28;20020;-69
2023/03/11 03:16:11;;;;;;;4.70;0.85;;;;;;;-146.27;100.00;48391.63;5092797;28;20040;-69
2023/03/11 03:18:37;;;;;;;9.52;1.00;;;;;;;-146.27;100.00;48427.47;5094247;28;20379;-70
2023/03/11 03:21:03;;;;;;;5.30;0.93;;;;;;;-146.27;100.00;48395.59;5093029;28;20068;-69
2023/03/11 03:23:28;;;;;;;4.60;0.80;;;;;;;-146.27;100.00;48399.59;5084383;28;20114;-69
2023/03/11 03:25:54;;;;;;;4.05;0.90;;;;;;;-146.27;100.00;48447.38;5093592;28;20154;-69
2023/03/11 03:28:19;;;;;;;10.85;1.52;;;;;;;-146.27;100.00;48405.56;5092107;28;20438;-69
2023/03/11 03:30:45;;;;;;;5.15;1.23;;;;;;;-146.27;100.00;48369.72;5093585;28;20024;-68
2023/03/11 03:33:10;;;;;;;8.32;1.25;;;;;;;-146.27;100.00;48391.63;5084841;28;20051;-69
2023/03/11 03:35:40;;;;;;;3.40;0.88;;;;;;;-146.27;100.00;48395.59;5085223;28;20103;-70
2023/03/11 03:38:05;;;;;;;6.03;1.20;;;;;;;-146.27;100.00;48391.63;5093150;28;20095;-69
2023/03/11 03:40:31;;;;;;;7.20;1.42;;;;;;;-146.27;100.00;48377.69;5090403;28;20598;-68
2023/03/11 03:42:56;;;;;;;1.20;0.90;;;;;;;-146.27;100.00;48395.59;5089736;28;20529;-71
2023/03/11 03:45:21;;;;;;;4.55;1.58;;;;;;;-146.27;100.00;48413.53;5075249;28;20029;-68
2023/03/11 03:47:47;;;;;;;3.83;1.60;;;;;;;-146.27;100.00;48415.53;5091026;28;20514;-69
2023/03/11 03:50:12;;;;;;;2.83;1.42;;;;;;;-146.27;100.00;48423.50;5090244;28;20363;-68
2023/03/11 03:52:37;;;;;;;3.38;1.88;;;;;;;-146.27;100.00;48379.66;5090591;28;20356;-69
2023/03/11 03:55:05;;;;;;;7.70;1.67;;;;;;;-146.27;100.00;48407.56;5094723;28;20051;-69
2023/03/11 03:57:30;;;;;;;3.92;1.85;;;;;;;-146.27;100.00;48407.56;5092778;28;20035;-70
2023/03/11 03:59:56;;;;;;;6.53;1.65;;;;;;;-146.27;100.00;48433.44;5091293;28;20352;-70
2023/03/11 04:02:21;;;;;;;9.63;2.03;;;;;;;-146.27;100.00;48391.63;5092817;28;20028;-70
2023/03/11 04:04:47;;;;;;;5.55;2.05;;;;;;;-146.27;100.00;48363.75;5093747;28;20059;-70
2023/03/11 04:07:12;;;;;;;5.05;1.98;;;;;;;-146.27;100.00;48415.53;5084195;28;20055;-70
2023/03/11 04:09:40;;;;;;;11.75;2.67;;;;;;;-146.27;100.00;48405.56;5084162;28;20081;-70
2023/03/11 04:12:06;;;;;;;4.63;1.30;;;;;;;-146.27;100.00;48427.47;5093106;28;20024;-69
2023/03/11 04:14:31;;;;;;;6.82;1.88;;;;;;;-146.27;100.00;48437.44;5087059;28;20027;-70
2023/03/11 04:16:57;;;;;;;3.53;1.73;;;;;;;-146.27;100.00;48427.47;5085788;28;20020;-68
2023/03/11 04:19:22;;;;;;;2.65;1.10;;;;;;;-146.27;100.00;48393.63;5085431;28;20487;-69
2023/03/11 04:21:49;;;;;;;9.02;1.27;;;;;;;-146.27;100.00;48391.63;5084601;28;20032;-70
2023/03/11 04:24:14;;;;;;;11.13;1.13;;;;;;;-146.27;100.00;48393.63;5085247;28;20024;-70
2023/03/11 04:26:40;;;;;;;1.80;0.90;;;;;;;-146.27;100.00;48393.63;5091297;28;20369;-70
2023/03/11 04:29:05;;;;;;;2.40;1.35;;;;;;;-146.27;100.00;48377.69;5085018;28;20024;-69
2023/03/11 04:31:30;;;;;;;15.93;1.67;;;;;;;-146.27;100.00;48443.41;5090414;28;20039;-70
2023/03/11 04:33:56;;;;;;;6.15;0.90;;;;;;;-146.27;100.00;48443.41;5089577;28;20077;-70
2023/03/11 04:36:21;;;;;;;4.60;1.42;;;;;;;-146.27;100.00;48407.56;5088888;28;20023;-70
2023/03/11 04:38:47;;;;;;;8.23;1.90;;;;;;;-146.27;100.00;48439.41;5090056;28;20050;-69
2023/03/11 04:41:12;;;;;;;3.00;1.20;;;;;;;-146.27;100.00;48419.50;5075542;28;20028;-69
2023/03/11 04:43:37;;;;;;;3.53;1.33;;;;;;;-146.27;100.00;48385.66;5090763;28;20551;-69
2023/03/11 04:46:03;;;;;;;1.67;1.00;;;;;;;-146.27;100.00;48395.59;5089778;28;20024;-70
2023/03/11 04:48:28;;;;;;;1.95;1.15;;;;;;;-146.27;100.00;48419.50;5083979;28;20089;-69
2023/03/11 04:50:54;;;;;;;2.15;1.08;;;;;;;-146.27;100.00;48415.53;5085374;28;20024;-70
2023/03/11 04:53:20;;;;;;;3.88;0.80;;;;;;;-146.27;100.00;48439.41;5090305;28;20020;-70
2023/03/11 04:55:46;;;;;;;4.50;1.20;;;;;;;-146.27;100.00;48439.41;5088611;28;20022;-70
2023/03/11 04:58:12;;;;;;;6.35;0.88;;;;;;;-146.27;100.00;48399.59;5084047;28;20062;-69
2023/03/11 05:00:37;;;;;;;3.58;0.93;;;;;;;-146.27;100.00;48401.56;5089217;28;20028;-69
2023/03/11 05:03:03;;;;;;;3.70;0.93;;;;;;;-146.27;100.00;48447.38;5078796;28;20031;-70
2023/03/11 05:05:28;;;;;;;2.03;0.80;;;;;;;-146.27;100.00;48407.56;5074840;28;20046;-70
2023/03/11 05:07:53;;;;;;;10.30;1.40;;;;;;;-146.27;100.00;48387.63;5086904;28;20071;-70
2023/03/11 05:10:21;;;;;;;1.73;0.70;;;;;;;-146.27;100.00;48433.44;5089445;28;20028;-70
2023/03/11 05:12:47;;;;;;;2.05;0.60;;;;;;;-146.27;100.00;48399.59;5088974;28;20020;-69
2023/03/11 05:15:12;;;;;;;2.33;0.98;;;;;;;-146.27;100.00;48415.53;5089596;28;20028;-69
2023/03/11 05:17:38;;;;;;;1.77;0.90;;;;;;;-146.27;100.00;48395.59;5082000;28;20020;-68
2023/03/11 05:20:06;;;;;;;6.03;1.13;;;;;;;-146.27;100.00;48403.56;5088825;28;20032;-70
2023/03/11 05:22:32;;;;;;;5.03;0.75;;;;;;;-146.27;100.00;48403.56;5090065;28;20505;-70
2023/03/11 05:24:57;;;;;;;1.48;0.90;;;;;;;-146.27;100.00;48423.50;5088590;28;20107;-69
2023/03/11 05:27:22;;;;;;;6.63;0.80;;;;;;;-146.27;100.00;48399.59;5093018;28;20076;-69
2023/03/11 05:29:48;;;;;;;4.43;0.68;;;;;;;-146.27;100.00;48419.50;5091654;28;20024;-70
2023/03/11 05:32:13;;;;;;;2.25;1.00;;;;;;;-146.27;100.00;48443.41;5080861;28;20050;-69
2023/03/11 05:34:39;;;;;;;1.55;0.88;;;;;;;-146.27;100.00;48407.56;5083396;28;20032;-69
2023/03/11 05:37:04;;;;;;;2.08;1.33;;;;;;;-146.27;100.00;48403.56;5090826;28;20039;-69
2023/03/11 05:39:30;;;;;;;5.43;0.90;;;;;;;-146.27;100.00;48395.59;5091571;28;20059;-69
2023/03/11 05:41:55;;;;;;;4.55;1.10;;;;;;;-146.27;100.00;48413.53;5081790;28;20029;-70
2023/03/11 05:44:21;;;;;;;5.85;1.02;;;;;;;-146.27;100.00;48429.47;5083784;28;20418;-70
2023/03/11 05:46:46;;;;;;;8.05;0.82;;;;;;;-146.27;100.00;48419.50;5085031;28;20394;-69
2023/03/11 05:49:12;;;;;;;7.43;1.35;;;;;;;-146.27;100.00;48413.53;5082262;28;20025;-70
2023/03/11 05:51:37;;;;;;;4.40;1.65;;;;;;;-146.27;100.00;48403.56;5086180;28;20028;-70
2023/03/11 05:54:03;;;;;;;17.45;1.40;;;;;;;-146.27;100.00;48419.50;5091324;28;20345;-70
2023/03/11 05:56:28;;;;;;;8.52;1.05;;;;;;;-146.27;100.00;48395.59;5079165;28;20105;-69
2023/03/11 05:58:57;;;;;;;3.97;0.90;;;;;;;-146.27;100.00;48419.50;5080746;28;20028;-69
2023/03/11 06:01:22;;;;;;;3.97;1.05;;;;;;;-146.27;100.00;48407.56;5082001;28;20456;-70
2023/03/11 06:03:47;;;;;;;2.78;1.02;;;;;;;-146.27;100.00;48421.50;5091423;28;20038;-69
2023/03/11 06:06:13;;;;;;;5.05;1.20;;;;;;;-146.27;100.00;48439.41;5085650;28;20044;-70
2023/03/11 06:08:40;;;;;;;7.63;1.48;;;;;;;-146.27;100.00;48413.53;5075720;28;20033;-69
2023/03/11 06:11:09;;;;;;;2.45;1.60;;;;;;;-146.27;100.00;48433.44;5082144;28;20016;-70
2023/03/11 06:13:35;;;;;;;5.78;1.80;;;;;;;-146.27;100.00;48415.53;5086294;28;20020;-69
2023/03/11 06:16:01;;;;;;;7.13;1.50;;;;;;;-146.27;100.00;48393.63;5090310;28;20426;-69
2023/03/11 06:18:26;;;;;;;10.40;1.38;;;;;;;-146.27;100.00;48415.53;5089081;28;20081;-69
2023/03/11 06:20:53;;;;;;;5.05;1.55;;;;;;;-146.27;100.00;48383.66;5083310;28;20078;-68
2023/03/11 06:23:19;;;;;;;4.88;1.33;;;;;;;-146.27;100.00;48419.50;5089447;28;20020;-69
2023/03/11 06:25:45;;;;;;;2.38;1.42;;;;;;;-146.27;100.00;48441.41;5104415;28;20063;-69
2023/03/11 06:28:11;;;;;;;5.20;1.40;;;;;;;-146.27;100.00;48439.41;5085068;28;20031;-68
2023/03/11 06:30:36;;;;;;;5.10;1.30;;;;;;;-146.27;100.00;48415.53;5088607;28;20465;-69
2023/03/11 06:33:02;;;;;;;3.40;1.45;;;;;;;-146.27;100.00;48425.47;5093854;28;20589;-69
2023/03/11 06:35:27;;;;;;;6.40;1.50;;;;;;;-146.27;100.00;48451.38;5094226;28;20032;-68
2023/03/11 06:37:52;;;;;;;5.97;1.52;;;;;;;-146.27;100.00;48403.56;5095685;28;20031;-69
2023/03/11 06:40:18;;;;;;;2.88;1.73;;;;;;;-146.27;100.00;48443.41;5092225;28;20483;-68
2023/03/11 06:42:46;;;;;;;7.28;2.67;;;;;;;-146.27;100.00;48395.59;5094540;28;20395;-69
2023/03/11 06:45:12;;;;;;;7.07;2.90;;;;;;;-146.27;100.00;48391.63;5093068;28;20479;-70
2023/03/11 06:47:37;;;;;;;6.88;1.85;;;;;;;-146.27;100.00;48415.53;5076478;28;20071;-69
2023/03/11 06:50:05;;;;;;;13.32;2.00;;;;;;;-146.27;100.00;48395.59;5093248;28;20028;-69
2023/03/11 06:52:31;;;;;;;6.53;1.88;;;;;;;-146.27;100.00;48455.34;5085202;28;20063;-70
2023/03/11 06:54:56;;;;;;;4.93;2.08;;;;;;;-146.27;100.00;48437.44;5093830;28;20402;-68
2023/03/11 06:57:21;;;;;;;5.85;2.28;;;;;;;-146.27;100.00;48435.44;5092210;28;20111;-70
2023/03/11 06:59:47;;;;;;;9.60;2.30;;;;;;;-146.27;100.00;48415.53;5089140;28;20035;-70
2023/03/11 07:02:13;;;;;;;5.50;1.90;;;;;;;-146.27;100.00;48407.56;5089431;28;20128;-68
2023/03/11 07:04:38;;;;;;;3.95;1.52;;;;;;;-146.27;100.00;48423.50;5092792;28;20027;-69
2023/03/11 07:07:04;;;;;;;3.70;1.52;;;;;;;-146.27;100.00;48417.50;5084888;28;20371;-70
2023/03/11 07:09:29;;;;;;;6.10;1.63;;;;;;;-146.27;100.00;48399.59;5095182;28;20023;-69
2023/03/11 07:11:55;;;;;;;7.55;2.03;;;;;;;-146.27;100.00;48425.47;5083952;28;20020;-68
2023/03/11 07:14:20;;;;;;;6.65;2.28;;;;;;;-146.27;100.00;48423.50;5090874;28;20028;-69
2023/03/11 07:16:46;;;;;;;2.33;1.52;;;;;;;-146.27;100.00;48403.56;5094630;28;20035;-69
2023/03/11 07:19:12;;;;;;;4.40;1.80;;;;;;;-146.27;100.00;48435.44;5095672;28;20016;-69
2023/03/11 07:21:37;;;;;;;4.53;2.40;;;;;;;-146.27;100.00;48433.44;5102539;28;20024;-69
2023/03/11 07:24:04;;;;;;;5.32;2.33;;;;;;;-146.27;100.00;48375.69;5089421;28;20112;-69
2023/03/11 07:26:31;;;;;;;2.75;1.58;;;;;;;-146.27;100.00;48437.44;5088544;28;20063;-70
2023/03/11 07:28:57;;;;;;;13.88;2.33;;;;;;;-146.27;100.00;48415.53;5090347;28;20111;-70
2023/03/11 07:31:28;;;;;;;3.83;2.00;;;;;;;-146.27;100.00;48401.56;5092945;28;20028;-69
2023/03/11 07:33:56;;;;;;;7.35;2.80;;;;;;;-146.27;100.00;48427.47;5090454;28;20492;-70
2023/03/11 07:36:23;;;;;;;5.05;3.22;;;;;;;-146.27;100.00;48411.53;5093395;28;20031;-69
2023/03/11 07:38:58;;;;;;;4.93;3.22;;;;;;;-146.27;100.00;48429.47;5093762;28;20103;-69
2023/03/11 07:41:25;;;;;;;2.35;1.88;;;;;;;-146.27;100.00;48405.56;5101354;28;20433;-70
2023/03/11 07:43:54;;;;;;;5.65;1.80;;;;;;;-146.27;100.00;48441.41;5092335;28;20036;-70
2023/03/11 07:46:21;;;;;;;5.72;2.13;;;;;;;-146.27;100.00;48437.44;5098789;28;20032;-69
2023/03/11 07:48:48;;;;;;;7.53;2.17;;;;;;;-146.27;100.00;48435.44;5094938;28;20032;-68
2023/03/11 07:51:20;;;;;;;2.95;1.65;;;;;;;-146.27;100.00;48407.56;5087712;28;20457;-69
2023/03/11 07:53:45;;;;;;;3.95;1.58;;;;;;;-146.27;100.00;48441.41;5093137;28;20024;-68
2023/03/11 07:56:13;;;;;;;5.82;1.65;;;;;;;-146.27;100.00;48375.69;5088975;28;20383;-69
2023/03/11 07:58:39;;;;;;;8.27;1.90;;;;;;;-146.27;100.00;48419.50;5089513;28;20028;-69
2023/03/11 08:01:11;;;;;;;5.72;1.90;;;;;;;-146.27;100.00;48427.47;5085409;28;20034;-69
2023/03/11 08:03:37;;;;;;;10.65;2.08;;;;;;;-146.27;100.00;48431.47;5087902;28;20043;-67
2023/03/11 08:06:15;;;;;;;7.93;2.08;;;;;;;-146.27;100.00;48419.50;5089000;28;20040;-69
2023/03/11 08:08:41;;;;;;;10.13;2.00;;;;;;;-146.27;100.00;48395.59;5088485;28;20028;-68
2023/03/11 08:11:06;;;;;;;9.48;1.85;;;;;;;-146.27;100.00;48415.53;5085464;28;20043;-69
2023/03/11 08:13:32;;;;;;;6.43;2.15;;;;;;;-146.27;100.00;48419.50;5090869;28;20103;-69
2023/03/11 08:15:58;;;;;;;11.32;1.80;;;;;;;-146.27;99.06;48407.56;5088519;28;20023;-70
2023/03/11 08:18:23;;;;;;;5.35;1.77;;;;;;;-146.27;95.44;48395.59;5086832;28;20032;-68
2023/03/11 08:20:49;;;;;;;5.28;1.58;;;;;;;-146.27;92.90;48409.53;5087519;28;20082;-69
2023/03/11 08:23:14;;;;;;;4.93;1.88;;;;;;;-146.27;92.82;48387.63;5087315;28;20460;-69
2023/03/11 08:25:40;;;;;;;3.47;1.65;;;;;;;-146.27;91.07;48415.53;5085785;28;20367;-69
2023/03/11 08:28:06;;;;;;;3.78;1.48;;;;;;;-146.27;88.42;48379.66;5095496;28;20024;-69
2023/03/11 08:30:32;;;;;;;1.98;1.33;;;;;;;-146.27;86.92;48399.59;5083446;28;20026;-68
2023/03/11 08:32:58;;;;;;;6.07;1.75;;;;;;;-146.27;88.50;48413.53;5092825;28;20495;-70
2023/03/11 08:35:25;;;;;;;2.70;1.15;;;;;;;-146.27;83.45;48385.66;5091433;28;20024;-69
2023/03/11 08:37:50;;;;;;;8.30;1.63;;;;;;;-146.27;83.82;48395.59;5100032;28;20026;-68
2023/03/11 08:40:16;;;;;;;6.82;1.50;;;;;;;-146.27;81.62;48423.50;5093366;28;20110;-69
2023/03/11 08:42:41;;;;;;;4.55;1.02;;;;;;;-146.27;83.06;48409.53;5082472;28;20032;-69
2023/03/11 08:45:07;;;;;;;9.07;1.27;;;;;;;-146.27;83.87;48407.56;5089835;28;20035;-68
2023/03/11 08:47:35;;;;;;;8.13;1.33;;;;;;;-146.27;81.13;48417.50;5087848;28;20077;-69
2023/03/11 08:50:00;;;;;;;6.18;1.45;;;;;;;-146.27;83.50;48395.59;5091420;28;20020;-69
2023/03/11 08:52:26;;;;;;;3.70;0.93;;;;;;;-146.27;78.44;48377.69;5092397;28;20101;-70
2023/03/11 08:54:51;;;;;;;2.92;1.20;;;;;;;-146.27;75.98;48403.56;5083194;28;20043;-69
2023/03/11 08:57:16;;;;;;;3.67;1.33;;;;;;;-146.27;76.59;48395.59;5092595;28;20051;-70
2023/03/11 08:59:42;;;;;;;4.80;1.20;;;;;;;-146.27;73.84;48355.78;5083066;28;20051;-69
2023/03/11 09:02:09;;;;;;;5.72;1.05;;;;;;;-146.27;70.83;48383.66;5084991;28;20032;-68
2023/03/11 09:04:34;;;;;;;4.65;0.93;;;;;;;-146.27;72.22;48429.47;5085508;28;20027;-70
2023/03/11 09:07:10;;;;;;;5.82;0.85;;;;;;;-146.27;73.29;48411.53;5107375;27;20884;-69
2023/03/11 09:09:35;;;;;;;9.77;1.30;;;;;;;-146.27;70.32;48427.47;5108143;27;20112;-69
2023/03/11 09:12:00;;;;;;;2.55;0.90;;;;;;;-146.27;66.76;48349.78;5105002;28;20111;-70
2023/03/11 09:14:26;;;;;;;6.05;1.42;;;;;;;-146.27;65.56;48393.63;5107438;28;20035;-69
2023/03/11 09:16:51;;;;;;;2.97;0.85;;;;;;;-146.27;67.22;48389.63;5122471;28;20020;-70
2023/03/11 09:19:16;;;;;;;5.38;1.00;;;;;;;-146.27;66.36;48399.59;5111962;28;20032;-70
2023/03/11 09:21:42;;;;;;;2.08;0.85;;;;;;;-146.27;59.72;48391.63;5105168;28;20027;-70
2023/03/11 09:24:07;;;;;;;9.88;1.42;;;;;;;-146.27;56.10;48379.66;5101327;28;20034;-72
2023/03/11 09:26:32;;;;;;;7.63;1.00;;;;;;;-146.27;56.77;48363.75;5109441;28;20020;-71
2023/03/11 09:28:58;;;;;;;3.17;0.90;;;;;;;-146.27;57.59;48387.63;5095593;28;20463;-70
2023/03/11 09:31:23;;;;;;;4.65;1.02;;;;;;;-146.27;58.11;48375.69;5093177;28;20035;-71
2023/03/11 09:33:51;;;;;;;5.03;0.65;;;;;;;-146.27;61.58;48367.72;5098497;28;20110;-69
2023/03/11 09:36:18;;;;;;;1.77;0.90;;;;;;;-146.27;54.66;48363.75;5099159;28;20456;-70
2023/03/11 09:38:44;;;;;;;4.40;0.93;;;;;;;-146.27;53.57;48387.63;5095080;28;20020;-70
2023/03/11 09:41:25;;;;;;;5.57;0.75;;;;;;;-146.27;52.14;48359.75;5104058;28;20047;-69
2023/03/11 09:44:03;;;;;;;4.72;1.27;;;;;;;-146.27;49.21;48331.88;5106208;28;20042;-70
2023/03/11 09:46:45;;;;;;;4.82;0.70;;;;;;;-146.27;50.32;48387.63;5103981;28;20098;-70
2023/03/11 09:49:28;;;;;;;2.75;0.70;;;;;;;-146.27;52.11;48375.69;5107672;28;20036;-69
2023/03/11 09:51:59;;;;;;;9.10;1.40;;;;;;;-146.27;51.75;48389.63;5102490;28;20035;-70
2023/03/11 09:54:27;;;;;;;5.25;0.73;;;;;;;-146.27;52.70;48369.72;5099090;28;20047;-69
2023/03/11 09:56:53;;;;;;;4.68;0.98;;;;;;;-146.27;55.45;48329.88;5098486;28;20025;-69
2023/03/11 09:59:29;;;;;;;6.13;1.02;;;;;;;-146.27;52.24;48391.63;5090739;28;20392;-69
2023/03/11 10:01:54;;;;;;;2.05;0.88;;;;;;;-146.27;53.12;48397.59;5097629;28;20026;-71
2023/03/11 10:04:26;;;;;;;11.07;1.00;;;;;;;-146.27;52.25;48379.66;5097384;28;20032;-70
2023/03/11 10:06:52;;;;;;;7.50;1.15;;;;;;;-146.27;52.21;48383.66;5105243;28;20036;-69
2023/03/11 10:09:39;;;;;;;8.95;1.17;;;;;;;-146.27;51.68;48361.75;5096096;28;20031;-70
2023/03/11 10:12:40;;;;;;;2.72;0.85;;;;;;;-146.27;48.93;48345.81;5099625;28;20574;-69
2023/03/11 10:15:23;;;;;;;6.72;1.25;;;;;;;-146.27;50.00;48389.63;5110010;28;20055;-70
2023/03/11 10:18:04;;;;;;;5.25;0.68;;;;;;;-146.27;49.63;48383.66;5087719;28;20035;-69
2023/03/11 10:20:53;;;;;;;10.52;0.77;;;;;;;-146.27;49.07;48381.66;5084438;28;20480;-69
2023/03/11 10:23:28;;;;;;;2.85;0.75;;;;;;;-146.27;50.86;48363.75;5090212;28;20039;-69
2023/03/11 10:26:01;;;;;;;7.55;0.88;;;;;;;-146.27;50.74;48355.78;5083721;28;20024;-68
2023/03/11 10:28:56;;;;;;;3.45;0.77;;;;;;;-146.27;50.96;48367.72;5095553;28;20030;-71
2023/03/11 10:31:39;;;;;;;7.82;0.90;;;;;;;-146.27;49.05;48381.66;5088912;28;20431;-69
2023/03/11 10:34:25;;;;;;;4.87;1.47;;;;;;;-146.27;49.51;48379.66;5087086;28;20059;-69
2023/03/11 10:36:54;;;;;;;3.35;0.80;;;;;;;-146.27;50.00;48363.75;5095358;28;20043;-69
2023/03/11 10:39:21;;;;;;;3.90;0.70;;;;;;;-146.27;48.71;48367.72;5094688;28;20643;-68
2023/03/11 10:41:56;;;;;;;8.88;1.38;;;;;;;-146.27;49.37;48369.72;5079658;28;20077;-70
2023/03/11 10:44:24;;;;;;;5.50;0.90;;;;;;;-146.27;47.71;48355.78;5085403;28;20392;-69
2023/03/11 10:46:49;;;;;;;6.25;0.98;;;;;;;-146.27;48.51;48379.66;5089226;28;20115;-69
2023/03/11 10:49:17;;;;;;;1.40;0.70;;;;;;;-146.27;48.63;48351.78;5094820;28;20119;-69
2023/03/11 10:51:51;;;;;;;4.38;1.40;;;;;;;-146.27;46.69;48327.88;5082117;28;20027;-70
2023/03/11 10:54:58;;;;;;;4.65;0.98;;;;;;;-146.27;45.91;48349.78;5085911;28;20043;-69
2023/03/11 10:57:31;;;;;;;2.45;0.65;;;;;;;-146.27;45.41;48355.78;5076348;28;20032;-69
2023/03/11 10:59:58;;;;;;;6.95;1.27;;;;;;;-146.27;45.31;48351.78;5085665;28;20476;-72
2023/03/11 11:02:32;;;;;;;10.75;1.10;;;;;;;-146.27;44.25;48359.75;5088275;28;20055;-70
2023/03/11 11:05:16;;;;;;;6.10;1.15;;;;;;;-146.27;43.49;48359.75;5083157;28;20032;-69
2023/03/11 11:07:42;;;;;;;4.07;1.15;;;;;;;-146.27;44.40;48375.69;5084112;28;20475;-69
2023/03/11 11:10:10;;;;;;;5.90;1.25;;;;;;;-146.27;42.69;48327.88;5111312;28;20036;-69
2023/03/11 11:12:56;;;;;;;10.15;0.95;;;;;;;-146.27;44.85;48341.81;5091720;28;20034;-68
2023/03/11 11:15:22;;;;;;;2.40;0.88;;;;;;;-146.27;42.04;48325.91;5084489;28;20071;-69